sensor_id;sensor_type;location;lat;lon;timestamp;pressure;altitude;pressure_sealevel;temperature;humidity
40502;BME280;29631;49.168;9.848;2022-12-29T00:02:16;96191.84;;;13.21;78.76
40502;BME280;29631;49.168;9.848;2022-12-29T00:04:42;96143.06;;;12.94;79.00
40502;BME280;29631;49.168;9.848;2022-12-29T00:07:08;96192.19;;;13.24;78.58
40502;BME280;29631;49.168;9.848;2022-12-29T00:09:35;96191.72;;;13.27;78.56
40502;BME280;29631;49.168;9.848;2022-12-29T00:12:02;96184.13;;;13.31;79.00
40502;BME280;29631;49.168;9.848;2022-12-29T00:14:28;96186.63;;;13.37;78.28
40502;BME280;29631;49.168;9.848;2022-12-29T00:17:12;96186.72;;;13.42;78.29
40502;BME280;29631;49.168;9.848;2022-12-29T00:19:38;96189.50;;;13.47;78.94
40502;BME280;29631;49.168;9.848;2022-12-29T00:22:23;96178.91;;;13.47;78.27
40502;BME280;29631;49.168;9.848;2022-12-29T00:25:10;96179.09;;;13.57;78.06
40502;BME280;29631;49.168;9.848;2022-12-29T00:27:55;96177.91;;;13.65;78.71
40502;BME280;29631;49.168;9.848;2022-12-29T00:30:39;96165.16;;;13.62;78.03
40502;BME280;29631;49.168;9.848;2022-12-29T00:33:29;96178.38;;;13.73;79.11
40502;BME280;29631;49.168;9.848;2022-12-29T00:36:23;96186.50;;;13.83;78.26
40502;BME280;29631;49.168;9.848;2022-12-29T00:39:00;96177.75;;;13.82;78.68
40502;BME280;29631;49.168;9.848;2022-12-29T00:41:46;96165.88;;;13.85;78.05
40502;BME280;29631;49.168;9.848;2022-12-29T00:44:31;96179.88;;;13.97;78.43
40502;BME280;29631;49.168;9.848;2022-12-29T00:46:56;96164.44;;;13.94;78.66
40502;BME280;29631;49.168;9.848;2022-12-29T00:49:22;96167.22;;;13.99;78.49
40502;BME280;29631;49.168;9.848;2022-12-29T00:52:04;96174.59;;;13.97;78.23
40502;BME280;29631;49.168;9.848;2022-12-29T00:54:34;96162.69;;;13.99;78.97
40502;BME280;29631;49.168;9.848;2022-12-29T00:57:01;96154.13;;;13.81;78.75
40502;BME280;29631;49.168;9.848;2022-12-29T00:59:28;96178.34;;;14.01;78.65
40502;BME280;29631;49.168;9.848;2022-12-29T01:01:54;96179.44;;;14.00;78.30
40502;BME280;29631;49.168;9.848;2022-12-29T01:04:22;96165.28;;;13.94;78.37
40502;BME280;29631;49.168;9.848;2022-12-29T01:06:48;96155.13;;;13.91;78.12
40502;BME280;29631;49.168;9.848;2022-12-29T01:09:15;96142.31;;;13.72;78.14
40502;BME280;29631;49.168;9.848;2022-12-29T01:12:00;96172.56;;;13.87;78.63
40502;BME280;29631;49.168;9.848;2022-12-29T01:14:26;96177.59;;;13.89;78.14
40502;BME280;29631;49.168;9.848;2022-12-29T01:16:53;96159.44;;;13.81;78.29
40502;BME280;29631;49.168;9.848;2022-12-29T01:19:19;96158.66;;;13.80;78.57
40502;BME280;29631;49.168;9.848;2022-12-29T01:21:46;96146.44;;;13.79;78.09
40502;BME280;29631;49.168;9.848;2022-12-29T01:24:14;96156.31;;;13.84;78.45
40502;BME280;29631;49.168;9.848;2022-12-29T01:26:40;96160.00;;;13.83;78.22
40502;BME280;29631;49.168;9.848;2022-12-29T01:29:06;96097.28;;;13.44;77.43
40502;BME280;29631;49.168;9.848;2022-12-29T01:31:32;96158.19;;;13.83;78.32
40502;BME280;29631;49.168;9.848;2022-12-29T01:33:57;96172.88;;;13.91;78.17
40502;BME280;29631;49.168;9.848;2022-12-29T01:36:24;96171.84;;;13.92;77.91
40502;BME280;29631;49.168;9.848;2022-12-29T01:38:50;96170.25;;;13.91;78.70
40502;BME280;29631;49.168;9.848;2022-12-29T01:41:16;96191.16;;;14.04;78.53
40502;BME280;29631;49.168;9.848;2022-12-29T01:43:51;96183.56;;;13.96;78.78
40502;BME280;29631;49.168;9.848;2022-12-29T01:46:40;96194.94;;;14.08;78.49
40502;BME280;29631;49.168;9.848;2022-12-29T01:51:41;96185.94;;;14.09;78.18
40502;BME280;29631;49.168;9.848;2022-12-29T01:54:16;96188.59;;;14.09;78.48
40502;BME280;29631;49.168;9.848;2022-12-29T01:56:45;96187.22;;;14.18;78.15
40502;BME280;29631;49.168;9.848;2022-12-29T01:59:17;96165.59;;;13.98;77.62
40502;BME280;29631;49.168;9.848;2022-12-29T02:01:44;96170.16;;;14.14;77.87
40502;BME280;29631;49.168;9.848;2022-12-29T02:04:11;96185.22;;;14.25;78.20
40502;BME280;29631;49.168;9.848;2022-12-29T02:06:47;96180.44;;;14.27;77.78
40502;BME280;29631;49.168;9.848;2022-12-29T02:09:16;96180.56;;;14.32;78.55
40502;BME280;29631;49.168;9.848;2022-12-29T02:11:42;96180.63;;;14.37;77.44
40502;BME280;29631;49.168;9.848;2022-12-29T02:14:13;96169.53;;;14.40;77.86
40502;BME280;29631;49.168;9.848;2022-12-29T02:20:23;96170.50;;;14.50;77.90
40502;BME280;29631;49.168;9.848;2022-12-29T02:31:15;96169.94;;;14.64;77.94
40502;BME280;29631;49.168;9.848;2022-12-29T02:37:17;96158.13;;;14.72;77.84
40502;BME280;29631;49.168;9.848;2022-12-29T02:40:15;96150.00;;;14.78;78.09
40502;BME280;29631;49.168;9.848;2022-12-29T02:45:54;96137.38;;;14.85;77.30
40502;BME280;29631;49.168;9.848;2022-12-29T02:51:03;96137.53;;;14.95;77.67
40502;BME280;29631;49.168;9.848;2022-12-29T02:53:32;96133.56;;;14.98;77.68
40502;BME280;29631;49.168;9.848;2022-12-29T02:56:18;96122.66;;;14.94;77.51
40502;BME280;29631;49.168;9.848;2022-12-29T02:58:44;96135.00;;;15.05;77.60
40502;BME280;29631;49.168;9.848;2022-12-29T03:01:23;96125.75;;;15.08;77.54
40502;BME280;29631;49.168;9.848;2022-12-29T03:04:19;96121.00;;;15.10;77.32
40502;BME280;29631;49.168;9.848;2022-12-29T03:13:27;96118.81;;;15.23;77.68
40502;BME280;29631;49.168;9.848;2022-12-29T03:16:24;96116.06;;;15.18;77.46
40502;BME280;29631;49.168;9.848;2022-12-29T03:24:46;96122.16;;;15.35;77.91
40502;BME280;29631;49.168;9.848;2022-12-29T03:27:19;96110.41;;;15.31;77.60
40502;BME280;29631;49.168;9.848;2022-12-29T03:29:52;96121.34;;;15.34;78.00
40502;BME280;29631;49.168;9.848;2022-12-29T03:32:21;96114.72;;;15.37;78.15
40502;BME280;29631;49.168;9.848;2022-12-29T03:34:50;96068.63;;;15.05;77.63
40502;BME280;29631;49.168;9.848;2022-12-29T03:37:22;96028.00;;;14.83;77.62
40502;BME280;29631;49.168;9.848;2022-12-29T03:39:49;96086.59;;;15.20;77.81
40502;BME280;29631;49.168;9.848;2022-12-29T03:42:19;96099.16;;;15.24;77.32
40502;BME280;29631;49.168;9.848;2022-12-29T03:44:45;96089.91;;;15.26;77.53
40502;BME280;29631;49.168;9.848;2022-12-29T03:47:13;96086.16;;;15.23;77.38
40502;BME280;29631;49.168;9.848;2022-12-29T03:49:39;96067.16;;;15.14;77.29
40502;BME280;29631;49.168;9.848;2022-12-29T03:52:05;96074.88;;;15.16;77.71
40502;BME280;29631;49.168;9.848;2022-12-29T03:54:32;96085.19;;;15.12;77.29
40502;BME280;29631;49.168;9.848;2022-12-29T03:56:58;96084.13;;;15.13;77.57
40502;BME280;29631;49.168;9.848;2022-12-29T03:59:24;96089.44;;;15.13;77.49
40502;BME280;29631;49.168;9.848;2022-12-29T04:01:49;96090.69;;;15.06;77.23
40502;BME280;29631;49.168;9.848;2022-12-29T04:04:16;96093.88;;;15.08;77.84
40502;BME280;29631;49.168;9.848;2022-12-29T04:06:41;96066.03;;;14.89;77.07
40502;BME280;29631;49.168;9.848;2022-12-29T04:09:09;96085.47;;;14.94;77.25
40502;BME280;29631;49.168;9.848;2022-12-29T04:11:34;96082.63;;;15.01;77.22
40502;BME280;29631;49.168;9.848;2022-12-29T04:14:00;96096.22;;;15.04;76.95
40502;BME280;29631;49.168;9.848;2022-12-29T04:16:26;96084.75;;;14.99;77.29
40502;BME280;29631;49.168;9.848;2022-12-29T04:18:52;96073.00;;;14.95;77.37
40502;BME280;29631;49.168;9.848;2022-12-29T04:21:17;96103.72;;;15.07;77.22
40502;BME280;29631;49.168;9.848;2022-12-29T04:23:43;96102.16;;;15.11;76.92
40502;BME280;29631;49.168;9.848;2022-12-29T04:26:09;96096.31;;;15.09;76.79
40502;BME280;29631;49.168;9.848;2022-12-29T04:28:36;96091.16;;;15.03;76.84
40502;BME280;29631;49.168;9.848;2022-12-29T04:31:03;96095.00;;;15.12;76.89
40502;BME280;29631;49.168;9.848;2022-12-29T04:33:29;96081.06;;;15.00;77.11
40502;BME280;29631;49.168;9.848;2022-12-29T04:35:55;96092.88;;;15.14;76.71
40502;BME280;29631;49.168;9.848;2022-12-29T04:38:23;96113.50;;;15.23;77.04
40502;BME280;29631;49.168;9.848;2022-12-29T04:40:49;96104.38;;;15.19;76.59
40502;BME280;29631;49.168;9.848;2022-12-29T04:43:16;96108.19;;;15.23;77.17
40502;BME280;29631;49.168;9.848;2022-12-29T04:45:46;96088.47;;;15.19;76.76
40502;BME280;29631;49.168;9.848;2022-12-29T04:48:13;96075.13;;;15.14;76.56
40502;BME280;29631;49.168;9.848;2022-12-29T04:50:40;96069.31;;;15.17;76.60
40502;BME280;29631;49.168;9.848;2022-12-29T04:53:06;96088.06;;;15.27;77.07
40502;BME280;29631;49.168;9.848;2022-12-29T04:55:32;96085.94;;;15.29;76.71
40502;BME280;29631;49.168;9.848;2022-12-29T04:57:58;96080.63;;;15.29;77.03
40502;BME280;29631;49.168;9.848;2022-12-29T05:00:24;96079.03;;;15.28;76.33
40502;BME280;29631;49.168;9.848;2022-12-29T05:02:50;96074.53;;;15.28;76.85
40502;BME280;29631;49.168;9.848;2022-12-29T05:05:16;96018.88;;;14.96;76.63
40502;BME280;29631;49.168;9.848;2022-12-29T05:07:42;96056.66;;;15.24;76.55
40502;BME280;29631;49.168;9.848;2022-12-29T05:10:08;96061.41;;;15.22;76.34
40502;BME280;29631;49.168;9.848;2022-12-29T05:12:36;96046.22;;;15.18;76.13
40502;BME280;29631;49.168;9.848;2022-12-29T05:15:04;96052.88;;;15.20;77.06
40502;BME280;29631;49.168;9.848;2022-12-29T05:17:30;96071.00;;;15.23;76.25
40502;BME280;29631;49.168;9.848;2022-12-29T05:19:56;96053.56;;;15.11;76.94
40502;BME280;29631;49.168;9.848;2022-12-29T05:22:22;96050.41;;;15.14;76.17
40502;BME280;29631;49.168;9.848;2022-12-29T05:24:48;96041.28;;;15.05;76.50
40502;BME280;29631;49.168;9.848;2022-12-29T05:27:14;96053.81;;;15.09;77.06
40502;BME280;29631;49.168;9.848;2022-12-29T05:29:40;96029.75;;;14.94;76.77
40502;BME280;29631;49.168;9.848;2022-12-29T05:32:05;96056.53;;;15.14;76.81
40502;BME280;29631;49.168;9.848;2022-12-29T05:34:31;96063.47;;;15.15;76.23
40502;BME280;29631;49.168;9.848;2022-12-29T05:36:57;96059.97;;;15.15;76.80
40502;BME280;29631;49.168;9.848;2022-12-29T05:39:23;96048.63;;;15.19;76.35
40502;BME280;29631;49.168;9.848;2022-12-29T05:41:48;96054.72;;;15.20;77.07
40502;BME280;29631;49.168;9.848;2022-12-29T05:44:14;96051.66;;;15.06;76.55
40502;BME280;29631;49.168;9.848;2022-12-29T05:46:40;96037.06;;;15.09;76.75
40502;BME280;29631;49.168;9.848;2022-12-29T05:49:06;96054.94;;;15.13;76.98
40502;BME280;29631;49.168;9.848;2022-12-29T05:51:32;96047.94;;;15.07;76.67
40502;BME280;29631;49.168;9.848;2022-12-29T05:53:58;96077.13;;;15.24;77.23
40502;BME280;29631;49.168;9.848;2022-12-29T05:56:24;96087.50;;;15.25;76.60
40502;BME280;29631;49.168;9.848;2022-12-29T05:58:49;96075.75;;;15.21;76.72
40502;BME280;29631;49.168;9.848;2022-12-29T06:01:15;96053.53;;;15.06;76.57
40502;BME280;29631;49.168;9.848;2022-12-29T06:03:41;96068.75;;;15.15;77.24
40502;BME280;29631;49.168;9.848;2022-12-29T06:06:07;96050.56;;;15.02;76.99
40502;BME280;29631;49.168;9.848;2022-12-29T06:08:33;96076.78;;;15.20;77.21
40502;BME280;29631;49.168;9.848;2022-12-29T06:11:01;96052.53;;;15.12;76.97
40502;BME280;29631;49.168;9.848;2022-12-29T06:13:27;96052.75;;;15.10;77.69
40502;BME280;29631;49.168;9.848;2022-12-29T06:15:53;96074.22;;;15.25;77.09
40502;BME280;29631;49.168;9.848;2022-12-29T06:18:19;96052.75;;;15.10;77.32
40502;BME280;29631;49.168;9.848;2022-12-29T06:20:44;96050.19;;;15.15;77.50
40502;BME280;29631;49.168;9.848;2022-12-29T06:23:10;96070.22;;;15.23;77.28
40502;BME280;29631;49.168;9.848;2022-12-29T06:25:37;96046.31;;;15.23;77.93
40502;BME280;29631;49.168;9.848;2022-12-29T06:28:03;96021.47;;;15.12;77.92
40502;BME280;29631;49.168;9.848;2022-12-29T06:30:31;96028.94;;;15.15;77.67
40502;BME280;29631;49.168;9.848;2022-12-29T06:32:58;96062.69;;;15.20;77.51
40502;BME280;29631;49.168;9.848;2022-12-29T06:35:24;96070.78;;;15.25;77.62
40502;BME280;29631;49.168;9.848;2022-12-29T06:37:50;96049.63;;;15.13;77.65
40502;BME280;29631;49.168;9.848;2022-12-29T06:40:16;96068.91;;;15.25;77.77
40502;BME280;29631;49.168;9.848;2022-12-29T06:42:42;96053.69;;;15.21;77.61
40502;BME280;29631;49.168;9.848;2022-12-29T06:45:08;96037.91;;;15.09;77.49
40502;BME280;29631;49.168;9.848;2022-12-29T06:47:35;96056.19;;;15.27;77.62
40502;BME280;29631;49.168;9.848;2022-12-29T06:50:04;96048.63;;;15.19;77.64
40502;BME280;29631;49.168;9.848;2022-12-29T06:52:29;96031.28;;;15.12;78.08
40502;BME280;29631;49.168;9.848;2022-12-29T06:54:55;96057.84;;;15.33;78.05
40502;BME280;29631;49.168;9.848;2022-12-29T06:57:21;96017.34;;;15.00;78.06
40502;BME280;29631;49.168;9.848;2022-12-29T06:59:47;96075.75;;;15.42;77.34
40502;BME280;29631;49.168;9.848;2022-12-29T07:02:13;96060.50;;;15.33;77.65
40502;BME280;29631;49.168;9.848;2022-12-29T07:04:44;96049.38;;;15.36;77.76
40502;BME280;29631;49.168;9.848;2022-12-29T07:07:10;96060.59;;;15.43;77.20
40502;BME280;29631;49.168;9.848;2022-12-29T07:09:36;96065.91;;;15.43;77.72
40502;BME280;29631;49.168;9.848;2022-12-29T07:12:02;96073.97;;;15.48;77.78
40502;BME280;29631;49.168;9.848;2022-12-29T07:14:27;96077.66;;;15.47;77.25
40502;BME280;29631;49.168;9.848;2022-12-29T07:16:53;96069.63;;;15.42;77.63
40502;BME280;29631;49.168;9.848;2022-12-29T07:19:19;96079.50;;;15.46;77.28
40502;BME280;29631;49.168;9.848;2022-12-29T07:21:45;96065.44;;;15.46;77.53
40502;BME280;29631;49.168;9.848;2022-12-29T07:24:11;96028.44;;;15.18;77.46
40502;BME280;29631;49.168;9.848;2022-12-29T07:26:37;96074.50;;;15.50;77.81
40502;BME280;29631;49.168;9.848;2022-12-29T07:29:03;96070.31;;;15.54;77.51
40502;BME280;29631;49.168;9.848;2022-12-29T07:31:29;96072.47;;;15.57;77.38
40502;BME280;29631;49.168;9.848;2022-12-29T07:33:55;96072.47;;;15.57;77.48
40502;BME280;29631;49.168;9.848;2022-12-29T07:36:21;96058.59;;;15.55;77.25
40502;BME280;29631;49.168;9.848;2022-12-29T07:38:46;96078.34;;;15.59;77.42
40502;BME280;29631;49.168;9.848;2022-12-29T07:41:12;96001.31;;;15.16;77.54
40502;BME280;29631;49.168;9.848;2022-12-29T07:43:38;96070.34;;;15.59;77.34
40502;BME280;29631;49.168;9.848;2022-12-29T07:46:04;96080.38;;;15.52;77.29
40502;BME280;29631;49.168;9.848;2022-12-29T07:48:30;96080.00;;;15.65;77.03
40502;BME280;29631;49.168;9.848;2022-12-29T07:50:55;96080.00;;;15.65;76.73
40502;BME280;29631;49.168;9.848;2022-12-29T07:53:21;96069.06;;;15.61;76.80
40502;BME280;29631;49.168;9.848;2022-12-29T07:55:47;96070.34;;;15.59;76.99
40502;BME280;29631;49.168;9.848;2022-12-29T07:58:13;96091.72;;;15.69;77.13
40502;BME280;29631;49.168;9.848;2022-12-29T08:00:39;96051.75;;;15.59;77.19
40502;BME280;29631;49.168;9.848;2022-12-29T08:03:05;96052.91;;;15.68;76.50
40502;BME280;29631;49.168;9.848;2022-12-29T08:05:32;96088.63;;;15.77;77.04
40502;BME280;29631;49.168;9.848;2022-12-29T08:07:58;96074.56;;;15.81;76.89
40502;BME280;29631;49.168;9.848;2022-12-29T08:10:25;96091.13;;;15.88;77.00
40502;BME280;29631;49.168;9.848;2022-12-29T08:12:50;96083.66;;;15.85;77.00
40502;BME280;29631;49.168;9.848;2022-12-29T08:15:16;96083.66;;;15.85;76.50
40502;BME280;29631;49.168;9.848;2022-12-29T08:17:42;96080.19;;;15.85;76.71
40502;BME280;29631;49.168;9.848;2022-12-29T08:20:08;96086.59;;;15.89;76.48
40502;BME280;29631;49.168;9.848;2022-12-29T08:22:34;96085.00;;;15.88;76.54
40502;BME280;29631;49.168;9.848;2022-12-29T08:25:00;96087.47;;;15.94;77.05
40502;BME280;29631;49.168;9.848;2022-12-29T08:27:26;96097.88;;;16.00;76.44
40502;BME280;29631;49.168;9.848;2022-12-29T08:29:52;96066.66;;;15.86;76.06
40502;BME280;29631;49.168;9.848;2022-12-29T08:32:18;96104.91;;;16.11;76.29
40502;BME280;29631;49.168;9.848;2022-12-29T08:34:44;96084.59;;;16.00;76.22
40502;BME280;29631;49.168;9.848;2022-12-29T08:37:09;96083.00;;;15.99;76.14
40502;BME280;29631;49.168;9.848;2022-12-29T08:39:35;96098.28;;;16.14;76.29
40502;BME280;29631;49.168;9.848;2022-12-29T08:42:01;96088.91;;;16.06;76.13
40502;BME280;29631;49.168;9.848;2022-12-29T08:44:27;96100.13;;;16.13;76.42
40502;BME280;29631;49.168;9.848;2022-12-29T08:46:52;96101.75;;;16.14;75.93
40502;BME280;29631;49.168;9.848;2022-12-29T08:49:18;96098.03;;;16.15;76.56
40502;BME280;29631;49.168;9.848;2022-12-29T08:51:44;96100.66;;;16.10;75.91
40502;BME280;29631;49.168;9.848;2022-12-29T08:54:09;96093.72;;;16.09;76.02
40502;BME280;29631;49.168;9.848;2022-12-29T08:56:35;96095.34;;;16.10;75.96
40502;BME280;29631;49.168;9.848;2022-12-29T08:59:01;96111.59;;;16.14;76.60
40502;BME280;29631;49.168;9.848;2022-12-29T09:01:27;96095.84;;;16.12;75.92
40502;BME280;29631;49.168;9.848;2022-12-29T09:03:53;96086.78;;;16.08;75.84
40502;BME280;29631;49.168;9.848;2022-12-29T09:06:20;96088.97;;;16.11;75.88
40502;BME280;29631;49.168;9.848;2022-12-29T09:08:45;96096.41;;;16.14;75.94
40502;BME280;29631;49.168;9.848;2022-12-29T09:11:21;96089.50;;;16.13;75.80
40502;BME280;29631;49.168;9.848;2022-12-29T09:13:48;96065.44;;;15.98;75.89
40502;BME280;29631;49.168;9.848;2022-12-29T09:16:15;96100.69;;;16.15;76.01
40502;BME280;29631;49.168;9.848;2022-12-29T09:18:41;96079.81;;;16.02;75.97
40502;BME280;29631;49.168;9.848;2022-12-29T09:21:09;96089.25;;;16.15;76.01
40502;BME280;29631;49.168;9.848;2022-12-29T09:23:35;96086.16;;;15.97;76.11
40502;BME280;29631;49.168;9.848;2022-12-29T09:26:02;96085.19;;;16.07;75.51
40502;BME280;29631;49.168;9.848;2022-12-29T09:28:28;96109.06;;;16.29;75.43
40502;BME280;29631;49.168;9.848;2022-12-29T09:30:55;96092.22;;;16.18;75.38
40502;BME280;29631;49.168;9.848;2022-12-29T09:33:21;96118.44;;;16.31;76.17
40502;BME280;29631;49.168;9.848;2022-12-29T09:35:56;96088.25;;;16.21;75.44
40502;BME280;29631;49.168;9.848;2022-12-29T09:38:23;96110.97;;;16.33;76.08
40502;BME280;29631;49.168;9.848;2022-12-29T09:41:10;96111.81;;;16.34;75.22
40502;BME280;29631;49.168;9.848;2022-12-29T09:46:43;96105.66;;;16.33;75.20
40502;BME280;29631;49.168;9.848;2022-12-29T09:49:44;96101.44;;;16.37;75.97
40502;BME280;29631;49.168;9.848;2022-12-29T09:52:32;96101.44;;;16.37;76.02
40502;BME280;29631;49.168;9.848;2022-12-29T09:55:05;96099.81;;;16.31;75.96
40502;BME280;29631;49.168;9.848;2022-12-29T09:57:39;96097.19;;;16.36;76.00
40502;BME280;29631;49.168;9.848;2022-12-29T10:00:16;96072.53;;;16.19;75.68
40502;BME280;29631;49.168;9.848;2022-12-29T10:02:54;96088.38;;;16.36;75.69
40502;BME280;29631;49.168;9.848;2022-12-29T10:11:08;96100.94;;;16.40;75.23
40502;BME280;29631;49.168;9.848;2022-12-29T10:14:08;96098.31;;;16.45;75.65
40502;BME280;29631;49.168;9.848;2022-12-29T10:19:41;96098.31;;;16.45;75.82
40502;BME280;29631;49.168;9.848;2022-12-29T10:25:16;96097.81;;;16.48;75.16
40502;BME280;29631;49.168;9.848;2022-12-29T10:27:48;96085.56;;;16.47;75.84
40502;BME280;29631;49.168;9.848;2022-12-29T10:30:15;96056.25;;;16.16;75.50
40502;BME280;29631;49.168;9.848;2022-12-29T10:32:56;96092.75;;;16.47;75.09
40502;BME280;29631;49.168;9.848;2022-12-29T10:35:32;96087.72;;;16.50;75.55
40502;BME280;29631;49.168;9.848;2022-12-29T10:38:22;96093.06;;;16.55;75.40
40502;BME280;29631;49.168;9.848;2022-12-29T10:40:58;96108.00;;;16.61;75.30
40502;BME280;29631;49.168;9.848;2022-12-29T10:43:45;96100.78;;;16.57;75.57
40502;BME280;29631;49.168;9.848;2022-12-29T10:46:25;96104.78;;;16.59;75.45
40502;BME280;29631;49.168;9.848;2022-12-29T10:48:53;96079.72;;;16.50;75.74
40502;BME280;29631;49.168;9.848;2022-12-29T10:51:27;96092.03;;;16.61;75.71
40502;BME280;29631;49.168;9.848;2022-12-29T10:56:36;96110.53;;;16.77;75.70
40502;BME280;29631;49.168;9.848;2022-12-29T10:59:22;96108.16;;;16.81;75.75
40502;BME280;29631;49.168;9.848;2022-12-29T11:02:23;96100.72;;;16.83;75.49
40502;BME280;29631;49.168;9.848;2022-12-29T11:05:25;96115.31;;;16.80;76.28
40502;BME280;29631;49.168;9.848;2022-12-29T11:07:50;96102.31;;;16.84;75.90
40502;BME280;29631;49.168;9.848;2022-12-29T11:13:10;96101.22;;;16.80;76.15
40502;BME280;29631;49.168;9.848;2022-12-29T11:15:48;96101.72;;;16.77;76.53
40502;BME280;29631;49.168;9.848;2022-12-29T11:18:32;96095.88;;;16.75;76.28
40502;BME280;29631;49.168;9.848;2022-12-29T11:21:01;96090.22;;;16.67;76.00
40502;BME280;29631;49.168;9.848;2022-12-29T11:23:37;96110.50;;;16.73;76.51
40502;BME280;29631;49.168;9.848;2022-12-29T11:26:23;96091.81;;;16.68;76.84
40502;BME280;29631;49.168;9.848;2022-12-29T11:31:48;96113.38;;;16.66;76.60
40502;BME280;29631;49.168;9.848;2022-12-29T11:34:31;96104.31;;;16.62;76.71
40502;BME280;29631;49.168;9.848;2022-12-29T11:37:03;96077.56;;;16.47;77.09
40502;BME280;29631;49.168;9.848;2022-12-29T11:40:02;96113.38;;;16.66;77.40
40502;BME280;29631;49.168;9.848;2022-12-29T11:42:38;96124.56;;;16.68;77.10
40502;BME280;29631;49.168;9.848;2022-12-29T11:45:15;96125.66;;;16.72;77.53
40502;BME280;29631;49.168;9.848;2022-12-29T11:47:45;96104.34;;;16.67;77.29
40502;BME280;29631;49.168;9.848;2022-12-29T11:50:22;96102.16;;;16.64;77.71
40502;BME280;29631;49.168;9.848;2022-12-29T11:52:58;96117.16;;;16.70;77.31
40502;BME280;29631;49.168;9.848;2022-12-29T11:55:26;96102.69;;;16.61;77.55
40502;BME280;29631;49.168;9.848;2022-12-29T11:57:55;96105.03;;;16.53;77.25
40502;BME280;29631;49.168;9.848;2022-12-29T12:00:24;96089.25;;;16.46;77.57
40502;BME280;29631;49.168;9.848;2022-12-29T12:03:01;96096.13;;;16.37;77.46
40502;BME280;29631;49.168;9.848;2022-12-29T12:05:41;96107.41;;;16.49;77.61
40502;BME280;29631;49.168;9.848;2022-12-29T12:08:34;96120.75;;;16.59;77.97
40502;BME280;29631;49.168;9.848;2022-12-29T12:11:22;96098.13;;;16.57;77.29
40502;BME280;29631;49.168;9.848;2022-12-29T12:14:15;96090.41;;;16.55;77.50
40502;BME280;29631;49.168;9.848;2022-12-29T12:17:11;96089.88;;;16.58;77.83
40502;BME280;29631;49.168;9.848;2022-12-29T12:20:34;96096.84;;;16.64;77.17
40502;BME280;29631;49.168;9.848;2022-12-29T12:26:27;96108.06;;;16.71;77.67
40502;BME280;29631;49.168;9.848;2022-12-29T12:28:59;96108.06;;;16.71;77.63
40502;BME280;29631;49.168;9.848;2022-12-29T12:32:01;96089.41;;;16.66;77.04
40502;BME280;29631;49.168;9.848;2022-12-29T12:34:46;96087.31;;;16.68;77.24
40502;BME280;29631;49.168;9.848;2022-12-29T12:37:58;96115.09;;;16.82;77.04
40502;BME280;29631;49.168;9.848;2022-12-29T12:41:11;96099.06;;;16.77;77.40
40502;BME280;29631;49.168;9.848;2022-12-29T12:44:12;96105.53;;;16.86;77.48
40502;BME280;29631;49.168;9.848;2022-12-29T12:53:19;96108.91;;;16.76;76.58
40502;BME280;29631;49.168;9.848;2022-12-29T12:56:22;96114.50;;;16.75;77.60
40502;BME280;29631;49.168;9.848;2022-12-29T13:13:26;96105.81;;;16.53;77.67
40502;BME280;29631;49.168;9.848;2022-12-29T13:19:14;96095.13;;;16.43;77.80
40502;BME280;29631;49.168;9.848;2022-12-29T13:38:46;96100.72;;;16.20;78.84
40502;BME280;29631;49.168;9.848;2022-12-29T13:41:51;96075.66;;;16.11;77.85
40502;BME280;29631;49.168;9.848;2022-12-29T13:44:24;96092.72;;;16.15;78.14
40502;BME280;29631;49.168;9.848;2022-12-29T13:46:51;96083.09;;;16.09;78.25
40502;BME280;29631;49.168;9.848;2022-12-29T13:49:22;96073.94;;;16.00;78.18
40502;BME280;29631;49.168;9.848;2022-12-29T13:52:12;96070.75;;;15.98;78.23
40502;BME280;29631;49.168;9.848;2022-12-29T13:55:38;96095.41;;;16.20;78.24
40502;BME280;29631;49.168;9.848;2022-12-29T14:00:44;96079.88;;;16.07;78.03
40502;BME280;29631;49.168;9.848;2022-12-29T14:03:46;96063.84;;;15.98;78.33
40502;BME280;29631;49.168;9.848;2022-12-29T14:06:26;96100.13;;;16.13;78.71
40502;BME280;29631;49.168;9.848;2022-12-29T14:08:58;96095.03;;;16.07;78.46
40502;BME280;29631;49.168;9.848;2022-12-29T14:11:39;96107.06;;;16.14;78.91
40502;BME280;29631;49.168;9.848;2022-12-29T14:16:44;96079.88;;;16.07;78.84
40502;BME280;29631;49.168;9.848;2022-12-29T14:19:26;96115.66;;;16.26;78.87
40502;BME280;29631;49.168;9.848;2022-12-29T14:22:02;96088.41;;;16.09;78.41
40502;BME280;29631;49.168;9.848;2022-12-29T14:34:54;96106.47;;;16.34;79.12
40502;BME280;29631;49.168;9.848;2022-12-29T14:37:28;96103.97;;;16.27;79.09
40502;BME280;29631;49.168;9.848;2022-12-29T14:40:23;96115.53;;;16.38;79.93
40502;BME280;29631;49.168;9.848;2022-12-29T14:42:52;96119.78;;;16.34;79.28
40502;BME280;29631;49.168;9.848;2022-12-29T14:45:30;96101.84;;;16.24;80.00
40502;BME280;29631;49.168;9.848;2022-12-29T14:47:58;96123.97;;;16.30;79.87
40502;BME280;29631;49.168;9.848;2022-12-29T14:50:40;96106.56;;;16.17;80.15
40502;BME280;29631;49.168;9.848;2022-12-29T14:56:10;96108.66;;;16.15;80.25
40502;BME280;29631;49.168;9.848;2022-12-29T14:59:12;96107.56;;;16.11;80.38
40502;BME280;29631;49.168;9.848;2022-12-29T15:01:45;96121.97;;;16.15;80.54
40502;BME280;29631;49.168;9.848;2022-12-29T15:04:25;96120.88;;;16.11;81.02
40502;BME280;29631;49.168;9.848;2022-12-29T15:06:53;96105.84;;;16.00;80.88
40502;BME280;29631;49.168;9.848;2022-12-29T15:10:05;96134.66;;;16.08;81.45
40502;BME280;29631;49.168;9.848;2022-12-29T15:12:43;96129.59;;;16.07;81.63
40502;BME280;29631;49.168;9.848;2022-12-29T15:15:26;96121.06;;;16.05;81.69
40502;BME280;29631;49.168;9.848;2022-12-29T15:17:52;96120.47;;;15.98;81.67
40502;BME280;29631;49.168;9.848;2022-12-29T15:20:31;96128.56;;;16.08;81.98
40502;BME280;29631;49.168;9.848;2022-12-29T15:23:12;96118.72;;;16.08;81.93
40502;BME280;29631;49.168;9.848;2022-12-29T15:25:59;96127.22;;;16.05;81.92
40502;BME280;29631;49.168;9.848;2022-12-29T15:28:28;96141.28;;;16.06;81.57
40502;BME280;29631;49.168;9.848;2022-12-29T15:31:05;96139.91;;;15.98;82.28